Terminal Aerodrome Forecast
Issued by NWS

Home | Current Version | Previous Version | Text Only | Print | Product List | Glossary On
Versions: 1 2 3 4 5 6 7 8 9 10 11 12 13 14 15 16 17 18 19 20 21 22 23 24 25 26 27 28 29 30 31 32 33 34 35
000
FTPQ31 PGUM 050302 AAC
TAFGUM
TAF AMD

TAF AMD
PTYA 050302Z 0503/0524 25011G20KT P6SM VCSH SCT016 BKN060 OVC120
      TEMPO 0503/0507 5SM SHRA BKN014 OVC025
     FM050700 24011KT P6SM VCSH SCT016 SCT060 BKN120=

USA.gov is the U.S. government's official web portal to all federal, state and local government web resources and services.